createdAt,value
2018-06-16T00:00:02.888Z,100970.00
2018-06-16T00:03:13.464Z,100964.00
2018-06-16T00:06:23.871Z,100968.00
2018-06-16T00:09:34.575Z,100971.00
2018-06-16T00:12:46.256Z,100971.00
2018-06-16T00:15:56.940Z,100976.00
2018-06-16T00:19:07.524Z,100978.00
2018-06-16T00:22:17.865Z,100974.00
2018-06-16T00:25:28.556Z,100980.00
2018-06-16T00:28:39.119Z,100976.00
2018-06-16T00:31:50.844Z,100969.00
2018-06-16T00:35:01.224Z,100973.00
2018-06-16T00:38:11.995Z,100972.00
2018-06-16T00:41:22.697Z,100966.00
2018-06-16T00:44:33.250Z,100961.00
2018-06-16T00:47:44.316Z,100959.00
2018-06-16T00:50:55.097Z,100960.00
2018-06-16T00:54:05.651Z,100964.00
2018-06-16T00:57:33.266Z,100967.00
2018-06-16T01:00:44.044Z,100963.00
2018-06-16T01:03:54.804Z,100966.00
2018-06-16T01:07:06.050Z,100960.00
2018-06-16T01:10:16.832Z,100958.00
2018-06-16T01:13:27.545Z,100956.00
2018-06-16T01:16:38.097Z,100953.00
2018-06-16T01:19:48.439Z,100955.00
2018-06-16T01:22:59.115Z,100957.00
2018-06-16T01:26:09.501Z,100954.00
2018-06-16T01:29:20.180Z,100954.00
2018-06-16T01:32:31.287Z,100951.00
2018-06-16T01:35:42.520Z,100949.00
2018-06-16T01:38:53.304Z,100949.00
2018-06-16T01:42:04.169Z,100943.00
2018-06-16T01:45:14.855Z,100949.00
2018-06-16T01:48:25.367Z,100952.00
2018-06-16T01:51:36.132Z,100947.00
2018-06-16T01:54:46.991Z,100950.00
2018-06-16T01:57:57.780Z,100952.00
2018-06-16T02:01:08.657Z,100948.00
2018-06-16T02:04:20.156Z,100957.00
2018-06-16T02:07:30.696Z,100955.00
2018-06-16T02:10:41.264Z,100955.00
2018-06-16T02:13:51.847Z,100952.00
2018-06-16T02:17:02.615Z,100951.00
2018-06-16T02:20:13.384Z,100954.00
2018-06-16T02:23:23.705Z,100950.00
2018-06-16T02:26:34.636Z,100953.00
2018-06-16T02:29:45.208Z,100952.00
2018-06-16T02:32:56.073Z,100950.00
2018-06-16T02:36:07.014Z,100952.00
2018-06-16T02:39:17.889Z,100952.00
2018-06-16T02:42:28.340Z,100950.00
2018-06-16T02:45:39.418Z,100950.00
2018-06-16T02:48:50.252Z,100946.00
2018-06-16T02:52:00.992Z,100949.00
2018-06-16T02:55:11.455Z,100950.00
2018-06-16T02:58:22.089Z,100948.00
2018-06-16T03:01:32.768Z,100951.00
2018-06-16T03:04:43.644Z,100942.00
2018-06-16T03:07:53.908Z,100939.00
2018-06-16T03:11:04.745Z,100943.00
2018-06-16T03:14:15.448Z,100937.00
2018-06-16T03:17:26.201Z,100944.00
2018-06-16T03:20:36.591Z,100946.00
2018-06-16T03:23:46.889Z,100943.00
2018-06-16T03:26:57.832Z,100942.00
2018-06-16T03:30:08.324Z,100943.00
2018-06-16T03:33:18.927Z,100940.00
2018-06-16T03:36:29.197Z,100945.00
2018-06-16T03:39:39.865Z,100945.00
2018-06-16T03:42:50.649Z,100948.00
2018-06-16T03:46:02.568Z,100940.00
2018-06-16T03:49:12.795Z,100940.00
2018-06-16T03:52:23.030Z,100945.00
2018-06-16T03:55:34.381Z,100932.00
2018-06-16T03:58:45.199Z,100934.00
2018-06-16T04:01:56.019Z,100933.00
2018-06-16T04:05:06.307Z,100930.00
2018-06-16T04:08:16.983Z,100932.00
2018-06-16T04:11:27.543Z,100925.00
2018-06-16T04:14:38.164Z,100922.00
2018-06-16T04:17:48.916Z,100924.00
2018-06-16T04:20:59.615Z,100926.00
2018-06-16T04:24:10.003Z,100927.00
2018-06-16T04:27:22.283Z,100915.00
2018-06-16T04:30:32.681Z,100919.00
2018-06-16T04:33:43.625Z,100919.00
2018-06-16T04:36:54.207Z,100918.00
2018-06-16T04:40:04.961Z,100917.00
2018-06-16T04:43:15.247Z,100922.00
2018-06-16T04:46:26.145Z,100921.00
2018-06-16T04:49:36.980Z,100926.00
2018-06-16T04:52:47.432Z,100926.00
2018-06-16T04:56:00.900Z,100921.00
2018-06-16T04:59:11.771Z,100928.00
2018-06-16T05:02:22.361Z,100927.00
2018-06-16T05:05:35.213Z,100921.00
2018-06-16T05:08:45.800Z,100921.00
2018-06-16T05:11:56.640Z,100919.00
2018-06-16T05:15:07.405Z,100917.00
2018-06-16T05:18:18.521Z,100912.00
2018-06-16T05:21:28.851Z,100911.00
2018-06-16T05:24:39.467Z,100904.00
2018-06-16T05:27:49.857Z,100909.00
2018-06-16T05:31:05.708Z,100906.00
2018-06-16T05:34:16.812Z,100906.00
2018-06-16T05:37:27.592Z,100910.00
2018-06-16T05:40:38.423Z,100904.00
2018-06-16T05:43:48.751Z,100912.00
2018-06-16T05:46:59.148Z,100904.00
2018-06-16T05:50:09.516Z,100906.00
2018-06-16T05:53:20.044Z,100909.00
2018-06-16T05:56:30.826Z,100911.00
2018-06-16T05:59:41.339Z,100913.00
2018-06-16T06:02:51.991Z,100914.00
2018-06-16T06:06:03.627Z,100913.00
2018-06-16T06:09:14.548Z,100908.00
2018-06-16T06:12:25.258Z,100914.00
2018-06-16T06:15:36.032Z,100916.00
2018-06-16T06:18:46.823Z,100918.00
2018-06-16T06:21:57.700Z,100919.00
2018-06-16T06:25:08.200Z,100918.00
2018-06-16T06:28:18.602Z,100916.00
2018-06-16T06:31:29.036Z,100915.00
2018-06-16T06:34:39.720Z,100922.00
2018-06-16T06:37:50.232Z,100920.00
2018-06-16T06:41:00.724Z,100921.00
2018-06-16T06:44:11.895Z,100921.00
2018-06-16T06:47:22.217Z,100923.00
2018-06-16T06:50:32.945Z,100919.00
2018-06-16T06:53:44.820Z,100926.00
2018-06-16T06:56:55.984Z,100917.00
2018-06-16T07:00:06.282Z,100917.00
2018-06-16T07:03:16.976Z,100925.00
2018-06-16T07:06:27.488Z,100923.00
2018-06-16T07:09:37.863Z,100921.00
2018-06-16T07:12:48.471Z,100908.00
2018-06-16T07:15:59.073Z,100922.00
2018-06-16T07:19:09.643Z,100921.00
2018-06-16T07:22:20.095Z,100918.00
2018-06-16T07:25:30.906Z,100917.00
2018-06-16T07:28:41.820Z,100916.00
2018-06-16T07:31:52.402Z,100919.00
2018-06-16T07:35:02.874Z,100920.00
2018-06-16T07:38:13.276Z,100918.00
2018-06-16T07:41:23.966Z,100921.00
2018-06-16T07:44:34.607Z,100923.00
2018-06-16T07:47:45.438Z,100927.00
2018-06-16T07:50:57.060Z,100920.00
2018-06-16T07:54:08.247Z,100921.00
2018-06-16T07:57:19.096Z,100917.00
2018-06-16T08:00:29.785Z,100923.00
2018-06-16T08:03:40.254Z,100916.00
2018-06-16T08:06:50.927Z,100930.00
2018-06-16T08:10:01.813Z,100922.00
2018-06-16T08:13:12.805Z,100919.00
2018-06-16T08:16:23.524Z,100923.00
2018-06-16T08:19:33.935Z,100921.00
2018-06-16T08:22:44.852Z,100912.00
2018-06-16T08:25:55.751Z,100904.00
2018-06-16T08:29:06.821Z,100910.00
2018-06-16T08:32:17.783Z,100914.00
2018-06-16T08:35:28.445Z,100912.00
2018-06-16T08:38:39.241Z,100918.00
2018-06-16T08:41:49.908Z,100916.00
2018-06-16T08:45:00.216Z,100909.00
2018-06-16T08:48:12.467Z,100913.00
2018-06-16T08:51:23.399Z,100924.00
2018-06-16T08:54:34.250Z,100923.00
2018-06-16T08:57:45.208Z,100928.00
2018-06-16T09:00:56.139Z,100928.00
2018-06-16T09:04:06.702Z,100927.00
2018-06-16T09:07:17.478Z,100930.00
2018-06-16T09:10:27.879Z,100923.00
2018-06-16T09:13:38.494Z,100930.00
2018-06-16T09:16:49.024Z,100921.00
2018-06-16T09:19:59.811Z,100923.00
2018-06-16T09:23:10.094Z,100937.00
2018-06-16T09:26:21.004Z,100940.00
2018-06-16T09:29:31.579Z,100933.00
2018-06-16T09:32:42.445Z,100939.00
2018-06-16T09:35:52.679Z,100942.00
2018-06-16T09:39:03.608Z,100935.00
2018-06-16T09:42:14.562Z,100934.00
2018-06-16T09:45:25.016Z,100934.00
2018-06-16T09:48:35.623Z,100926.00
2018-06-16T09:51:46.580Z,100940.00
2018-06-16T09:54:56.936Z,100936.00
2018-06-16T09:58:07.368Z,100939.00
2018-06-16T10:01:18.021Z,100933.00
2018-06-16T10:04:28.683Z,100928.00
2018-06-16T10:07:38.960Z,100929.00
2018-06-16T10:10:49.726Z,100931.00
2018-06-16T10:14:00.532Z,100924.00
2018-06-16T10:17:11.357Z,100931.00
2018-06-16T10:20:21.784Z,100930.00
2018-06-16T10:23:32.083Z,100930.00
2018-06-16T10:26:42.631Z,100924.00
2018-06-16T10:29:52.851Z,100920.00
2018-06-16T10:33:03.173Z,100925.00
2018-06-16T10:36:14.201Z,100920.00
2018-06-16T10:39:24.788Z,100917.00
2018-06-16T10:42:35.170Z,100907.00
2018-06-16T10:45:46.060Z,100917.00
2018-06-16T10:48:56.684Z,100909.00
2018-06-16T10:52:07.180Z,100911.00
2018-06-16T10:55:17.631Z,100905.00
2018-06-16T10:58:28.396Z,100903.00
2018-06-16T11:01:39.164Z,100909.00
2018-06-16T11:04:50.320Z,100913.00
2018-06-16T11:08:00.856Z,100909.00
2018-06-16T11:11:16.494Z,100911.00
2018-06-16T11:14:27.058Z,100912.00
2018-06-16T11:17:37.844Z,100917.00
2018-06-16T11:20:48.709Z,100923.00
2018-06-16T11:23:59.913Z,100913.00
2018-06-16T11:27:10.723Z,100918.00
2018-06-16T11:30:21.319Z,100911.00
2018-06-16T11:33:32.023Z,100906.00
2018-06-16T11:36:43.134Z,100911.00
2018-06-16T11:39:53.813Z,100902.00
2018-06-16T11:43:04.421Z,100900.00
2018-06-16T11:46:15.283Z,100891.00
2018-06-16T11:49:26.631Z,100901.00
2018-06-16T11:52:37.485Z,100901.00
2018-06-16T11:55:48.370Z,100863.00
2018-06-16T11:58:59.531Z,100889.00
2018-06-16T12:02:10.652Z,100886.00
2018-06-16T12:05:21.349Z,100874.00
2018-06-16T12:08:31.826Z,100880.00
2018-06-16T12:11:42.362Z,100881.00
2018-06-16T12:14:53.215Z,100892.00
2018-06-16T12:18:04.120Z,100898.00
2018-06-16T12:21:15.030Z,100872.00
2018-06-16T12:24:26.267Z,100871.00
2018-06-16T12:27:37.091Z,100874.00
2018-06-16T12:30:47.547Z,100871.00
2018-06-16T12:33:58.772Z,100863.00
2018-06-16T12:37:14.001Z,100864.00
2018-06-16T12:40:24.687Z,100856.00
2018-06-16T12:43:35.409Z,100853.00
2018-06-16T12:46:47.182Z,100860.00
2018-06-16T12:49:58.147Z,100853.00
2018-06-16T12:53:08.960Z,100848.00
2018-06-16T12:56:19.973Z,100837.00
2018-06-16T12:59:30.904Z,100849.00
2018-06-16T13:02:41.606Z,100848.00
2018-06-16T13:05:52.191Z,100842.00
2018-06-16T13:09:02.860Z,100832.00
2018-06-16T13:12:14.060Z,100824.00
2018-06-16T13:15:24.480Z,100826.00
2018-06-16T13:18:35.401Z,100832.00
2018-06-16T13:21:46.820Z,100838.00
2018-06-16T13:24:57.524Z,100835.00
2018-06-16T13:28:08.589Z,100838.00
2018-06-16T13:31:19.513Z,100844.00
2018-06-16T13:34:29.970Z,100839.00
2018-06-16T13:37:40.811Z,100840.00
2018-06-16T13:40:51.584Z,100839.00
2018-06-16T13:44:02.445Z,100837.00
2018-06-16T13:47:13.248Z,100843.00
2018-06-16T13:50:24.030Z,100836.00
2018-06-16T13:53:34.672Z,100831.00
2018-06-16T13:56:45.278Z,100831.00
2018-06-16T13:59:55.736Z,100837.00
2018-06-16T14:03:06.633Z,100824.00
2018-06-16T14:06:17.272Z,100814.00
2018-06-16T14:09:27.680Z,100821.00
2018-06-16T14:12:38.730Z,100808.00
2018-06-16T14:15:49.590Z,100802.00
2018-06-16T14:19:00.502Z,100789.00
2018-06-16T14:22:11.317Z,100781.00
2018-06-16T14:25:22.160Z,100772.00
2018-06-16T14:28:32.996Z,100776.00
2018-06-16T14:31:43.824Z,100770.00
2018-06-16T14:34:55.808Z,100766.00
2018-06-16T14:38:06.961Z,100755.00
2018-06-16T14:41:17.634Z,100747.00
2018-06-16T14:44:28.917Z,100752.00
2018-06-16T14:47:39.576Z,100748.00
2018-06-16T14:50:50.540Z,100746.00
2018-06-16T14:54:01.495Z,100747.00
2018-06-16T14:57:13.544Z,100750.00
2018-06-16T15:00:24.810Z,100755.00
2018-06-16T15:03:37.927Z,100757.00
2018-06-16T15:06:48.825Z,100753.00
2018-06-16T15:09:59.797Z,100743.00
2018-06-16T15:13:10.419Z,100750.00
2018-06-16T15:16:21.162Z,100760.00
2018-06-16T15:19:31.544Z,100748.00
2018-06-16T15:22:42.478Z,100747.00
2018-06-16T15:25:53.286Z,100744.00
2018-06-16T15:29:03.952Z,100731.00
2018-06-16T15:32:14.820Z,100734.00
2018-06-16T15:35:25.648Z,100748.00
2018-06-16T15:38:36.356Z,100741.00
2018-06-16T15:41:46.908Z,100741.00
2018-06-16T15:44:59.405Z,100730.00
2018-06-16T15:48:10.225Z,100739.00
2018-06-16T15:51:20.798Z,100753.00
2018-06-16T15:54:32.505Z,100748.00
2018-06-16T15:57:43.245Z,100723.00
2018-06-16T16:00:55.390Z,100728.00
2018-06-16T16:04:06.381Z,100722.00
2018-06-16T16:07:17.475Z,100720.00
2018-06-16T16:10:28.268Z,100718.00
2018-06-16T16:13:38.604Z,100717.00
2018-06-16T16:16:48.969Z,100728.00
2018-06-16T16:19:59.557Z,100720.00
2018-06-16T16:23:10.326Z,100722.00
2018-06-16T16:26:21.160Z,100718.00
2018-06-16T16:29:32.026Z,100718.00
2018-06-16T16:32:43.030Z,100710.00
2018-06-16T16:35:53.367Z,100702.00
2018-06-16T16:39:06.294Z,100698.00
2018-06-16T16:42:16.696Z,100701.00
2018-06-16T16:45:27.585Z,100703.00
2018-06-16T16:48:38.080Z,100703.00
2018-06-16T16:51:49.536Z,100717.00
2018-06-16T16:55:00.462Z,100724.00
2018-06-16T16:58:11.245Z,100722.00
2018-06-16T17:01:21.827Z,100722.00
2018-06-16T17:04:32.877Z,100715.00
2018-06-16T17:07:43.259Z,100721.00
2018-06-16T17:10:54.267Z,100710.00
2018-06-16T17:14:05.480Z,100714.00
2018-06-16T17:17:15.905Z,100717.00
2018-06-16T17:20:26.968Z,100719.00
2018-06-16T17:23:39.105Z,100723.00
2018-06-16T17:26:50.141Z,100722.00
2018-06-16T17:30:00.996Z,100728.00
2018-06-16T17:33:12.587Z,100721.00
2018-06-16T17:36:23.287Z,100725.00
2018-06-16T17:39:33.840Z,100727.00
2018-06-16T17:42:44.496Z,100729.00
2018-06-16T17:45:54.928Z,100729.00
2018-06-16T17:49:05.672Z,100728.00
2018-06-16T17:52:16.410Z,100730.00
2018-06-16T17:55:27.049Z,100734.00
2018-06-16T17:58:37.687Z,100733.00
2018-06-16T18:01:48.526Z,100739.00
2018-06-16T18:04:59.183Z,100737.00
2018-06-16T18:08:09.896Z,100758.00
2018-06-16T18:11:20.509Z,100779.00
2018-06-16T18:14:31.253Z,100777.00
2018-06-16T18:17:41.684Z,100798.00
2018-06-16T18:20:52.340Z,100810.00
2018-06-16T18:24:03.186Z,100825.00
2018-06-16T18:27:13.447Z,100841.00
2018-06-16T18:30:23.971Z,100847.00
2018-06-16T18:33:35.071Z,100854.00
2018-06-16T18:36:45.545Z,100864.00
2018-06-16T18:39:56.193Z,100872.00
2018-06-16T18:43:06.823Z,100871.00
2018-06-16T18:46:17.171Z,100856.00
2018-06-16T18:49:27.568Z,100861.00
2018-06-16T18:52:38.809Z,100867.00
2018-06-16T18:55:49.109Z,100868.00
2018-06-16T18:58:59.437Z,100872.00
2018-06-16T19:02:10.296Z,100871.00
2018-06-16T19:05:20.764Z,100875.00
2018-06-16T19:08:31.794Z,100881.00
2018-06-16T19:11:42.754Z,100883.00
2018-06-16T19:14:53.756Z,100886.00
2018-06-16T19:18:04.445Z,100880.00
2018-06-16T19:21:15.337Z,100881.00
2018-06-16T19:24:26.212Z,100883.00
2018-06-16T19:27:36.850Z,100886.00
2018-06-16T19:30:47.745Z,100892.00
2018-06-16T19:33:58.508Z,100891.00
2018-06-16T19:37:09.290Z,100893.00
2018-06-16T19:40:20.105Z,100898.00
2018-06-16T19:43:31.716Z,100899.00
2018-06-16T19:46:42.327Z,100897.00
2018-06-16T19:49:53.790Z,100890.00
2018-06-16T19:53:04.498Z,100893.00
2018-06-16T19:56:15.079Z,100891.00
2018-06-16T19:59:25.515Z,100897.00
2018-06-16T20:02:36.266Z,100902.00
2018-06-16T20:05:46.545Z,100906.00
2018-06-16T20:08:57.210Z,100911.00
2018-06-16T20:12:07.598Z,100903.00
2018-06-16T20:15:18.267Z,100904.00
2018-06-16T20:18:28.950Z,100896.00
2018-06-16T20:21:39.769Z,100909.00
2018-06-16T20:24:50.432Z,100920.00
2018-06-16T20:28:01.180Z,100925.00
2018-06-16T20:31:12.138Z,100929.00
2018-06-16T20:34:22.554Z,100937.00
2018-06-16T20:37:33.342Z,100935.00
2018-06-16T20:40:44.420Z,100934.00
2018-06-16T20:43:54.832Z,100933.00
2018-06-16T20:47:05.880Z,100933.00
2018-06-16T20:50:16.624Z,100938.00
2018-06-16T20:53:27.356Z,100939.00
2018-06-16T20:56:38.019Z,100933.00
2018-06-16T20:59:49.031Z,100923.00
2018-06-16T21:02:59.802Z,100928.00
2018-06-16T21:06:10.688Z,100931.00
2018-06-16T21:09:21.010Z,100931.00
2018-06-16T21:12:32.558Z,100929.00
2018-06-16T21:15:43.336Z,100929.00
2018-06-16T21:18:54.172Z,100934.00
2018-06-16T21:22:04.669Z,100943.00
2018-06-16T21:25:15.112Z,100940.00
2018-06-16T21:28:29.756Z,100942.00
2018-06-16T21:31:40.158Z,100936.00
2018-06-16T21:34:50.633Z,100938.00
2018-06-16T21:38:01.077Z,100945.00
2018-06-16T21:41:11.988Z,100948.00
2018-06-16T21:44:22.686Z,100945.00
2018-06-16T21:47:33.715Z,100942.00
2018-06-16T21:50:44.511Z,100943.00
2018-06-16T21:53:56.463Z,100945.00
2018-06-16T21:57:07.439Z,100947.00
2018-06-16T22:00:18.133Z,100950.00
2018-06-16T22:03:28.990Z,100950.00
2018-06-16T22:06:39.400Z,100951.00
2018-06-16T22:09:50.045Z,100947.00
2018-06-16T22:13:00.899Z,100953.00
2018-06-16T22:16:11.483Z,100950.00
2018-06-16T22:19:21.921Z,100952.00
2018-06-16T22:22:32.326Z,100950.00
2018-06-16T22:25:47.563Z,100954.00
2018-06-16T22:28:58.344Z,100954.00
2018-06-16T22:32:09.093Z,100952.00
2018-06-16T22:35:20.052Z,100952.00
2018-06-16T22:38:30.695Z,100951.00
2018-06-16T22:41:41.308Z,100955.00
2018-06-16T22:44:51.791Z,100954.00
2018-06-16T22:48:02.119Z,100960.00
2018-06-16T22:51:12.863Z,100957.00
2018-06-16T22:54:23.193Z,100953.00
2018-06-16T22:57:34.531Z,100946.00
2018-06-16T23:00:45.460Z,100947.00
2018-06-16T23:03:55.767Z,100952.00
2018-06-16T23:07:06.003Z,100950.00
2018-06-16T23:10:16.590Z,100952.00
2018-06-16T23:13:27.286Z,100957.00
2018-06-16T23:16:38.313Z,100952.00
2018-06-16T23:19:48.985Z,100951.00
2018-06-16T23:22:59.422Z,100951.00
2018-06-16T23:26:09.592Z,100948.00
2018-06-16T23:29:20.326Z,100954.00
2018-06-16T23:32:31.088Z,100959.00
2018-06-16T23:35:41.913Z,100957.00
2018-06-16T23:38:52.695Z,100951.00
2018-06-16T23:42:03.832Z,100951.00
2018-06-16T23:45:14.193Z,100958.00
2018-06-16T23:48:24.923Z,100952.00
2018-06-16T23:51:35.524Z,100952.00
2018-06-16T23:54:46.031Z,100960.00
2018-06-16T23:57:56.715Z,100961.00
